sensor_id;sensor_type;location;lat;lon;timestamp;P1;durP1;ratioP1;P2;durP2;ratioP2
51792;SDS011;37850;53.178;6.376;2023-05-31T00:01:50;10.65;;;4.10;;
51792;SDS011;37850;53.178;6.376;2023-05-31T00:04:16;9.65;;;4.20;;
51792;SDS011;37850;53.178;6.376;2023-05-31T00:06:41;9.98;;;4.20;;
51792;SDS011;37850;53.178;6.376;2023-05-31T00:09:07;7.82;;;4.07;;
51792;SDS011;37850;53.178;6.376;2023-05-31T00:11:33;12.35;;;4.03;;
51792;SDS011;37850;53.178;6.376;2023-05-31T00:13:58;10.50;;;4.03;;
51792;SDS011;37850;53.178;6.376;2023-05-31T00:16:24;9.70;;;3.95;;
51792;SDS011;37850;53.178;6.376;2023-05-31T00:18:50;7.72;;;3.70;;
51792;SDS011;37850;53.178;6.376;2023-05-31T00:21:15;9.70;;;4.22;;
51792;SDS011;37850;53.178;6.376;2023-05-31T00:23:41;10.05;;;3.97;;
51792;SDS011;37850;53.178;6.376;2023-05-31T00:26:07;7.70;;;3.63;;
51792;SDS011;37850;53.178;6.376;2023-05-31T00:28:32;9.07;;;3.90;;
51792;SDS011;37850;53.178;6.376;2023-05-31T00:30:58;10.43;;;4.13;;
51792;SDS011;37850;53.178;6.376;2023-05-31T00:33:24;10.00;;;4.00;;
51792;SDS011;37850;53.178;6.376;2023-05-31T00:35:50;10.95;;;3.90;;
51792;SDS011;37850;53.178;6.376;2023-05-31T00:38:15;8.55;;;3.90;;
51792;SDS011;37850;53.178;6.376;2023-05-31T00:40:41;8.90;;;3.92;;
51792;SDS011;37850;53.178;6.376;2023-05-31T00:43:07;10.80;;;3.80;;
51792;SDS011;37850;53.178;6.376;2023-05-31T00:45:33;7.60;;;3.50;;
51792;SDS011;37850;53.178;6.376;2023-05-31T00:47:59;10.55;;;4.40;;
51792;SDS011;37850;53.178;6.376;2023-05-31T00:50:26;10.63;;;4.30;;
51792;SDS011;37850;53.178;6.376;2023-05-31T00:52:52;7.75;;;4.20;;
51792;SDS011;37850;53.178;6.376;2023-05-31T00:55:20;9.85;;;4.40;;
51792;SDS011;37850;53.178;6.376;2023-05-31T00:57:46;9.73;;;4.07;;
51792;SDS011;37850;53.178;6.376;2023-05-31T01:00:13;8.65;;;3.63;;
51792;SDS011;37850;53.178;6.376;2023-05-31T01:02:40;8.48;;;3.80;;
51792;SDS011;37850;53.178;6.376;2023-05-31T01:05:07;11.48;;;4.25;;
51792;SDS011;37850;53.178;6.376;2023-05-31T01:07:34;9.90;;;3.65;;
51792;SDS011;37850;53.178;6.376;2023-05-31T01:10:01;8.40;;;4.03;;
51792;SDS011;37850;53.178;6.376;2023-05-31T01:15:16;12.98;;;4.95;;
51792;SDS011;37850;53.178;6.376;2023-05-31T01:17:45;9.82;;;4.38;;
51792;SDS011;37850;53.178;6.376;2023-05-31T01:20:32;8.90;;;4.57;;
51792;SDS011;37850;53.178;6.376;2023-05-31T01:28:22;8.07;;;4.00;;
51792;SDS011;37850;53.178;6.376;2023-05-31T01:30:50;9.57;;;4.70;;
51792;SDS011;37850;53.178;6.376;2023-05-31T01:33:18;8.43;;;4.03;;
51792;SDS011;37850;53.178;6.376;2023-05-31T01:35:45;10.20;;;4.13;;
51792;SDS011;37850;53.178;6.376;2023-05-31T01:38:11;10.60;;;4.18;;
51792;SDS011;37850;53.178;6.376;2023-05-31T01:40:37;11.98;;;4.30;;
51792;SDS011;37850;53.178;6.376;2023-05-31T01:43:03;8.68;;;4.57;;
51792;SDS011;37850;53.178;6.376;2023-05-31T01:45:30;11.15;;;5.10;;
51792;SDS011;37850;53.178;6.376;2023-05-31T01:48:00;9.32;;;4.05;;
51792;SDS011;37850;53.178;6.376;2023-05-31T01:50:29;9.35;;;4.18;;
51792;SDS011;37850;53.178;6.376;2023-05-31T01:52:58;8.45;;;4.50;;
51792;SDS011;37850;53.178;6.376;2023-05-31T01:55:24;8.55;;;4.25;;
51792;SDS011;37850;53.178;6.376;2023-05-31T01:57:50;9.18;;;4.47;;
51792;SDS011;37850;53.178;6.376;2023-05-31T02:00:17;10.98;;;5.05;;
51792;SDS011;37850;53.178;6.376;2023-05-31T02:02:45;9.07;;;4.95;;
51792;SDS011;37850;53.178;6.376;2023-05-31T02:05:11;10.50;;;4.82;;
51792;SDS011;37850;53.178;6.376;2023-05-31T02:07:41;11.02;;;5.35;;
51792;SDS011;37850;53.178;6.376;2023-05-31T02:10:09;10.13;;;4.78;;
51792;SDS011;37850;53.178;6.376;2023-05-31T02:12:35;9.32;;;4.13;;
51792;SDS011;37850;53.178;6.376;2023-05-31T02:15:01;12.75;;;4.50;;
51792;SDS011;37850;53.178;6.376;2023-05-31T02:17:27;12.20;;;4.50;;
51792;SDS011;37850;53.178;6.376;2023-05-31T02:19:54;9.43;;;4.95;;
51792;SDS011;37850;53.178;6.376;2023-05-31T02:22:20;12.88;;;5.45;;
51792;SDS011;37850;53.178;6.376;2023-05-31T02:24:46;12.63;;;4.90;;
51792;SDS011;37850;53.178;6.376;2023-05-31T02:27:13;12.95;;;5.00;;
51792;SDS011;37850;53.178;6.376;2023-05-31T02:29:39;10.80;;;5.13;;
51792;SDS011;37850;53.178;6.376;2023-05-31T02:32:05;10.63;;;4.45;;
51792;SDS011;37850;53.178;6.376;2023-05-31T02:34:31;8.93;;;4.45;;
51792;SDS011;37850;53.178;6.376;2023-05-31T02:36:59;9.10;;;4.63;;
51792;SDS011;37850;53.178;6.376;2023-05-31T02:39:25;8.93;;;4.22;;
51792;SDS011;37850;53.178;6.376;2023-05-31T02:41:51;9.60;;;4.65;;
51792;SDS011;37850;53.178;6.376;2023-05-31T02:44:16;9.90;;;4.88;;
51792;SDS011;37850;53.178;6.376;2023-05-31T02:46:42;9.90;;;5.10;;
51792;SDS011;37850;53.178;6.376;2023-05-31T02:49:08;10.90;;;5.22;;
51792;SDS011;37850;53.178;6.376;2023-05-31T02:51:34;11.65;;;4.45;;
51792;SDS011;37850;53.178;6.376;2023-05-31T02:54:00;10.32;;;4.60;;
51792;SDS011;37850;53.178;6.376;2023-05-31T02:56:26;8.98;;;4.88;;
51792;SDS011;37850;53.178;6.376;2023-05-31T02:58:51;9.68;;;4.75;;
51792;SDS011;37850;53.178;6.376;2023-05-31T03:01:17;11.35;;;5.25;;
51792;SDS011;37850;53.178;6.376;2023-05-31T03:03:43;9.70;;;5.25;;
51792;SDS011;37850;53.178;6.376;2023-05-31T03:06:09;12.32;;;5.30;;
51792;SDS011;37850;53.178;6.376;2023-05-31T03:08:36;8.57;;;4.25;;
51792;SDS011;37850;53.178;6.376;2023-05-31T03:11:02;12.57;;;5.35;;
51792;SDS011;37850;53.178;6.376;2023-05-31T03:13:28;12.32;;;5.28;;
51792;SDS011;37850;53.178;6.376;2023-05-31T03:15:54;11.52;;;5.07;;
51792;SDS011;37850;53.178;6.376;2023-05-31T03:18:20;10.45;;;5.10;;
51792;SDS011;37850;53.178;6.376;2023-05-31T03:20:45;11.00;;;5.22;;
51792;SDS011;37850;53.178;6.376;2023-05-31T03:23:11;13.65;;;5.30;;
51792;SDS011;37850;53.178;6.376;2023-05-31T03:25:37;9.77;;;4.88;;
51792;SDS011;37850;53.178;6.376;2023-05-31T03:28:02;11.52;;;4.55;;
51792;SDS011;37850;53.178;6.376;2023-05-31T03:30:29;8.75;;;4.53;;
51792;SDS011;37850;53.178;6.376;2023-05-31T03:32:55;12.20;;;5.45;;
51792;SDS011;37850;53.178;6.376;2023-05-31T03:35:20;10.98;;;5.22;;
51792;SDS011;37850;53.178;6.376;2023-05-31T03:37:46;11.27;;;5.10;;
51792;SDS011;37850;53.178;6.376;2023-05-31T03:40:12;12.10;;;5.10;;
51792;SDS011;37850;53.178;6.376;2023-05-31T03:42:38;9.98;;;4.95;;
51792;SDS011;37850;53.178;6.376;2023-05-31T03:45:03;10.60;;;5.28;;
51792;SDS011;37850;53.178;6.376;2023-05-31T03:47:30;10.05;;;5.15;;
51792;SDS011;37850;53.178;6.376;2023-05-31T03:49:55;10.18;;;5.13;;
51792;SDS011;37850;53.178;6.376;2023-05-31T03:52:21;10.77;;;5.13;;
51792;SDS011;37850;53.178;6.376;2023-05-31T03:54:46;12.00;;;4.90;;
51792;SDS011;37850;53.178;6.376;2023-05-31T03:57:12;11.18;;;5.10;;
51792;SDS011;37850;53.178;6.376;2023-05-31T03:59:38;9.55;;;4.57;;
51792;SDS011;37850;53.178;6.376;2023-05-31T04:02:04;10.95;;;4.50;;
51792;SDS011;37850;53.178;6.376;2023-05-31T04:04:30;9.93;;;4.35;;
51792;SDS011;37850;53.178;6.376;2023-05-31T04:06:55;8.80;;;3.95;;
51792;SDS011;37850;53.178;6.376;2023-05-31T04:09:21;10.07;;;4.40;;
51792;SDS011;37850;53.178;6.376;2023-05-31T04:11:48;9.43;;;3.72;;
51792;SDS011;37850;53.178;6.376;2023-05-31T04:14:17;8.27;;;3.97;;
51792;SDS011;37850;53.178;6.376;2023-05-31T04:16:43;7.50;;;3.90;;
51792;SDS011;37850;53.178;6.376;2023-05-31T04:19:08;12.68;;;4.25;;
51792;SDS011;37850;53.178;6.376;2023-05-31T04:21:35;9.98;;;4.15;;
51792;SDS011;37850;53.178;6.376;2023-05-31T04:24:01;10.77;;;4.20;;
51792;SDS011;37850;53.178;6.376;2023-05-31T04:26:27;11.40;;;4.43;;
51792;SDS011;37850;53.178;6.376;2023-05-31T04:28:55;9.57;;;4.53;;
51792;SDS011;37850;53.178;6.376;2023-05-31T04:31:22;11.95;;;4.68;;
51792;SDS011;37850;53.178;6.376;2023-05-31T04:33:53;11.90;;;4.90;;
51792;SDS011;37850;53.178;6.376;2023-05-31T04:36:25;11.63;;;4.97;;
51792;SDS011;37850;53.178;6.376;2023-05-31T04:38:50;10.65;;;4.90;;
51792;SDS011;37850;53.178;6.376;2023-05-31T04:41:20;9.43;;;4.22;;
51792;SDS011;37850;53.178;6.376;2023-05-31T04:43:51;13.73;;;4.53;;
51792;SDS011;37850;53.178;6.376;2023-05-31T04:46:18;10.75;;;4.53;;
51792;SDS011;37850;53.178;6.376;2023-05-31T04:48:47;12.80;;;5.03;;
51792;SDS011;37850;53.178;6.376;2023-05-31T04:51:18;13.70;;;4.95;;
51792;SDS011;37850;53.178;6.376;2023-05-31T04:53:44;12.98;;;4.57;;
51792;SDS011;37850;53.178;6.376;2023-05-31T04:56:13;12.05;;;5.18;;
51792;SDS011;37850;53.178;6.376;2023-05-31T04:58:39;10.20;;;5.00;;
51792;SDS011;37850;53.178;6.376;2023-05-31T05:01:05;10.35;;;4.43;;
51792;SDS011;37850;53.178;6.376;2023-05-31T05:03:32;12.23;;;4.57;;
51792;SDS011;37850;53.178;6.376;2023-05-31T05:06:00;11.60;;;4.57;;
51792;SDS011;37850;53.178;6.376;2023-05-31T05:08:27;16.52;;;5.05;;
51792;SDS011;37850;53.178;6.376;2023-05-31T05:10:53;12.18;;;4.57;;
51792;SDS011;37850;53.178;6.376;2023-05-31T05:13:18;12.07;;;4.60;;
51792;SDS011;37850;53.178;6.376;2023-05-31T05:15:47;13.82;;;4.43;;
51792;SDS011;37850;53.178;6.376;2023-05-31T05:18:12;9.82;;;4.18;;
51792;SDS011;37850;53.178;6.376;2023-05-31T05:20:38;10.95;;;4.45;;
51792;SDS011;37850;53.178;6.376;2023-05-31T05:23:04;10.65;;;4.50;;
51792;SDS011;37850;53.178;6.376;2023-05-31T05:25:32;10.52;;;4.13;;
51792;SDS011;37850;53.178;6.376;2023-05-31T05:27:58;13.77;;;4.88;;
51792;SDS011;37850;53.178;6.376;2023-05-31T05:30:24;12.45;;;4.50;;
51792;SDS011;37850;53.178;6.376;2023-05-31T05:32:50;15.40;;;5.00;;
51792;SDS011;37850;53.178;6.376;2023-05-31T05:35:16;15.13;;;5.43;;
51792;SDS011;37850;53.178;6.376;2023-05-31T05:37:42;13.60;;;5.95;;
51792;SDS011;37850;53.178;6.376;2023-05-31T05:40:08;13.95;;;5.25;;
51792;SDS011;37850;53.178;6.376;2023-05-31T05:42:34;16.50;;;5.90;;
51792;SDS011;37850;53.178;6.376;2023-05-31T05:45:05;14.55;;;5.43;;
51792;SDS011;37850;53.178;6.376;2023-05-31T05:47:34;15.40;;;5.50;;
51792;SDS011;37850;53.178;6.376;2023-05-31T05:50:01;14.23;;;5.60;;
51792;SDS011;37850;53.178;6.376;2023-05-31T05:52:27;15.13;;;5.55;;
51792;SDS011;37850;53.178;6.376;2023-05-31T05:54:53;15.05;;;5.75;;
51792;SDS011;37850;53.178;6.376;2023-05-31T05:57:18;17.02;;;5.63;;
51792;SDS011;37850;53.178;6.376;2023-05-31T05:59:45;14.23;;;4.82;;
51792;SDS011;37850;53.178;6.376;2023-05-31T06:02:12;17.73;;;5.57;;
51792;SDS011;37850;53.178;6.376;2023-05-31T06:04:38;15.30;;;5.63;;
51792;SDS011;37850;53.178;6.376;2023-05-31T06:07:04;14.45;;;4.97;;
51792;SDS011;37850;53.178;6.376;2023-05-31T06:09:30;15.43;;;6.20;;
51792;SDS011;37850;53.178;6.376;2023-05-31T06:11:56;18.15;;;6.13;;
51792;SDS011;37850;53.178;6.376;2023-05-31T06:14:22;14.43;;;5.47;;
51792;SDS011;37850;53.178;6.376;2023-05-31T06:16:47;19.15;;;5.80;;
51792;SDS011;37850;53.178;6.376;2023-05-31T06:19:13;13.90;;;5.15;;
51792;SDS011;37850;53.178;6.376;2023-05-31T06:21:39;14.30;;;5.15;;
51792;SDS011;37850;53.178;6.376;2023-05-31T06:24:04;16.20;;;6.05;;
51792;SDS011;37850;53.178;6.376;2023-05-31T06:26:30;14.30;;;5.13;;
51792;SDS011;37850;53.178;6.376;2023-05-31T06:28:57;17.50;;;5.47;;
51792;SDS011;37850;53.178;6.376;2023-05-31T06:31:25;15.15;;;5.20;;
51792;SDS011;37850;53.178;6.376;2023-05-31T06:33:52;17.50;;;4.82;;
51792;SDS011;37850;53.178;6.376;2023-05-31T06:36:18;13.45;;;4.75;;
51792;SDS011;37850;53.178;6.376;2023-05-31T06:38:43;11.85;;;4.30;;
51792;SDS011;37850;53.178;6.376;2023-05-31T06:41:11;11.27;;;4.40;;
51792;SDS011;37850;53.178;6.376;2023-05-31T06:43:37;14.88;;;4.25;;
51792;SDS011;37850;53.178;6.376;2023-05-31T06:46:03;10.13;;;4.00;;
51792;SDS011;37850;53.178;6.376;2023-05-31T06:48:32;14.63;;;4.40;;
51792;SDS011;37850;53.178;6.376;2023-05-31T06:50:58;12.00;;;4.30;;
51792;SDS011;37850;53.178;6.376;2023-05-31T06:53:25;11.10;;;3.50;;
51792;SDS011;37850;53.178;6.376;2023-05-31T06:55:50;9.73;;;3.78;;
51792;SDS011;37850;53.178;6.376;2023-05-31T06:58:16;11.32;;;4.05;;
51792;SDS011;37850;53.178;6.376;2023-05-31T07:00:42;11.95;;;3.53;;
51792;SDS011;37850;53.178;6.376;2023-05-31T07:03:08;9.55;;;3.58;;
51792;SDS011;37850;53.178;6.376;2023-05-31T07:05:34;9.82;;;2.95;;
51792;SDS011;37850;53.178;6.376;2023-05-31T07:08:00;9.93;;;3.08;;
51792;SDS011;37850;53.178;6.376;2023-05-31T07:10:25;7.05;;;3.28;;
51792;SDS011;37850;53.178;6.376;2023-05-31T07:12:52;9.23;;;3.25;;
51792;SDS011;37850;53.178;6.376;2023-05-31T07:15:18;10.05;;;2.78;;
51792;SDS011;37850;53.178;6.376;2023-05-31T07:17:44;10.82;;;3.00;;
51792;SDS011;37850;53.178;6.376;2023-05-31T07:20:10;10.35;;;2.85;;
51792;SDS011;37850;53.178;6.376;2023-05-31T07:22:36;7.68;;;2.70;;
51792;SDS011;37850;53.178;6.376;2023-05-31T07:25:02;10.02;;;3.17;;
51792;SDS011;37850;53.178;6.376;2023-05-31T07:27:29;10.68;;;2.95;;
51792;SDS011;37850;53.178;6.376;2023-05-31T07:29:56;9.45;;;2.80;;
51792;SDS011;37850;53.178;6.376;2023-05-31T07:32:21;8.93;;;2.97;;
51792;SDS011;37850;53.178;6.376;2023-05-31T07:34:47;7.65;;;2.50;;
51792;SDS011;37850;53.178;6.376;2023-05-31T07:37:13;8.43;;;3.10;;
51792;SDS011;37850;53.178;6.376;2023-05-31T07:39:39;9.85;;;2.78;;
51792;SDS011;37850;53.178;6.376;2023-05-31T07:42:05;8.13;;;2.40;;
51792;SDS011;37850;53.178;6.376;2023-05-31T07:44:31;10.43;;;3.40;;
51792;SDS011;37850;53.178;6.376;2023-05-31T07:46:57;7.82;;;2.70;;
51792;SDS011;37850;53.178;6.376;2023-05-31T07:49:22;10.88;;;3.47;;
51792;SDS011;37850;53.178;6.376;2023-05-31T07:51:48;7.80;;;2.67;;
51792;SDS011;37850;53.178;6.376;2023-05-31T07:54:14;10.48;;;2.67;;
51792;SDS011;37850;53.178;6.376;2023-05-31T07:56:39;12.55;;;2.85;;
51792;SDS011;37850;53.178;6.376;2023-05-31T07:59:05;9.85;;;2.80;;
51792;SDS011;37850;53.178;6.376;2023-05-31T08:01:32;11.38;;;3.00;;
51792;SDS011;37850;53.178;6.376;2023-05-31T08:04:08;8.00;;;3.20;;
51792;SDS011;37850;53.178;6.376;2023-05-31T08:06:36;13.23;;;3.38;;
51792;SDS011;37850;53.178;6.376;2023-05-31T08:09:05;7.57;;;2.50;;
51792;SDS011;37850;53.178;6.376;2023-05-31T08:11:31;9.55;;;3.22;;
51792;SDS011;37850;53.178;6.376;2023-05-31T08:14:00;11.13;;;2.70;;
51792;SDS011;37850;53.178;6.376;2023-05-31T08:16:30;9.75;;;3.10;;
51792;SDS011;37850;53.178;6.376;2023-05-31T08:18:57;11.82;;;3.13;;
51792;SDS011;37850;53.178;6.376;2023-05-31T08:21:22;11.82;;;4.07;;
51792;SDS011;37850;53.178;6.376;2023-05-31T08:23:48;11.13;;;3.53;;
51792;SDS011;37850;53.178;6.376;2023-05-31T08:26:14;6.82;;;2.47;;
51792;SDS011;37850;53.178;6.376;2023-05-31T08:28:39;8.70;;;3.00;;
51792;SDS011;37850;53.178;6.376;2023-05-31T08:31:06;8.50;;;3.17;;
51792;SDS011;37850;53.178;6.376;2023-05-31T08:33:32;12.68;;;3.38;;
51792;SDS011;37850;53.178;6.376;2023-05-31T08:35:58;11.70;;;3.33;;
51792;SDS011;37850;53.178;6.376;2023-05-31T08:38:28;6.95;;;2.75;;
51792;SDS011;37850;53.178;6.376;2023-05-31T08:40:54;9.05;;;3.13;;
51792;SDS011;37850;53.178;6.376;2023-05-31T08:45:52;8.50;;;3.00;;
51792;SDS011;37850;53.178;6.376;2023-05-31T08:48:34;7.50;;;3.00;;
51792;SDS011;37850;53.178;6.376;2023-05-31T08:51:14;6.93;;;2.60;;
51792;SDS011;37850;53.178;6.376;2023-05-31T08:53:41;7.00;;;2.22;;
51792;SDS011;37850;53.178;6.376;2023-05-31T08:56:08;12.18;;;2.90;;
51792;SDS011;37850;53.178;6.376;2023-05-31T08:58:34;11.95;;;3.70;;
51792;SDS011;37850;53.178;6.376;2023-05-31T09:01:02;12.52;;;2.92;;
51792;SDS011;37850;53.178;6.376;2023-05-31T09:03:28;9.88;;;2.63;;
51792;SDS011;37850;53.178;6.376;2023-05-31T09:05:57;13.68;;;3.10;;
51792;SDS011;37850;53.178;6.376;2023-05-31T09:08:23;10.13;;;2.88;;
51792;SDS011;37850;53.178;6.376;2023-05-31T09:10:50;12.35;;;3.38;;
51792;SDS011;37850;53.178;6.376;2023-05-31T09:13:16;12.75;;;3.08;;
51792;SDS011;37850;53.178;6.376;2023-05-31T09:15:42;15.18;;;3.38;;
51792;SDS011;37850;53.178;6.376;2023-05-31T09:20:41;12.50;;;3.50;;
51792;SDS011;37850;53.178;6.376;2023-05-31T09:23:08;12.45;;;3.83;;
51792;SDS011;37850;53.178;6.376;2023-05-31T09:28:10;13.52;;;3.72;;
51792;SDS011;37850;53.178;6.376;2023-05-31T09:30:36;16.40;;;3.78;;
51792;SDS011;37850;53.178;6.376;2023-05-31T09:33:02;12.35;;;3.88;;
51792;SDS011;37850;53.178;6.376;2023-05-31T09:35:28;16.95;;;4.22;;
51792;SDS011;37850;53.178;6.376;2023-05-31T09:37:53;18.30;;;4.68;;
51792;SDS011;37850;53.178;6.376;2023-05-31T09:40:23;16.42;;;4.80;;
51792;SDS011;37850;53.178;6.376;2023-05-31T09:42:53;14.32;;;4.38;;
51792;SDS011;37850;53.178;6.376;2023-05-31T09:45:19;15.18;;;4.57;;
51792;SDS011;37850;53.178;6.376;2023-05-31T09:47:49;15.25;;;4.82;;
51792;SDS011;37850;53.178;6.376;2023-05-31T09:50:18;15.52;;;3.70;;
51792;SDS011;37850;53.178;6.376;2023-05-31T09:52:49;12.88;;;4.70;;
51792;SDS011;37850;53.178;6.376;2023-05-31T09:55:19;19.80;;;4.75;;
51792;SDS011;37850;53.178;6.376;2023-05-31T09:57:48;15.45;;;4.35;;
51792;SDS011;37850;53.178;6.376;2023-05-31T10:00:17;14.88;;;4.53;;
51792;SDS011;37850;53.178;6.376;2023-05-31T10:02:44;14.35;;;4.20;;
51792;SDS011;37850;53.178;6.376;2023-05-31T10:05:11;12.73;;;4.82;;
51792;SDS011;37850;53.178;6.376;2023-05-31T10:07:39;12.38;;;4.32;;
51792;SDS011;37850;53.178;6.376;2023-05-31T10:10:06;12.00;;;4.68;;
51792;SDS011;37850;53.178;6.376;2023-05-31T10:12:34;13.27;;;5.03;;
51792;SDS011;37850;53.178;6.376;2023-05-31T10:15:09;14.68;;;5.07;;
51792;SDS011;37850;53.178;6.376;2023-05-31T10:17:38;13.00;;;5.00;;
51792;SDS011;37850;53.178;6.376;2023-05-31T10:20:11;12.38;;;5.03;;
51792;SDS011;37850;53.178;6.376;2023-05-31T10:22:41;12.77;;;4.75;;
51792;SDS011;37850;53.178;6.376;2023-05-31T10:25:10;12.32;;;4.40;;
51792;SDS011;37850;53.178;6.376;2023-05-31T10:27:44;15.55;;;5.90;;
51792;SDS011;37850;53.178;6.376;2023-05-31T10:30:15;10.07;;;4.95;;
51792;SDS011;37850;53.178;6.376;2023-05-31T10:32:54;11.57;;;5.43;;
51792;SDS011;37850;53.178;6.376;2023-05-31T10:35:25;16.65;;;6.45;;
51792;SDS011;37850;53.178;6.376;2023-05-31T10:37:51;13.07;;;5.32;;
51792;SDS011;37850;53.178;6.376;2023-05-31T10:40:19;12.63;;;5.55;;
51792;SDS011;37850;53.178;6.376;2023-05-31T10:45:55;15.88;;;6.45;;
51792;SDS011;37850;53.178;6.376;2023-05-31T10:48:28;13.32;;;6.05;;
51792;SDS011;37850;53.178;6.376;2023-05-31T10:51:18;12.00;;;5.65;;
51792;SDS011;37850;53.178;6.376;2023-05-31T10:53:45;13.07;;;5.57;;
51792;SDS011;37850;53.178;6.376;2023-05-31T10:56:12;12.68;;;5.25;;
51792;SDS011;37850;53.178;6.376;2023-05-31T10:58:43;16.92;;;6.22;;
51792;SDS011;37850;53.178;6.376;2023-05-31T11:01:18;13.60;;;5.57;;
51792;SDS011;37850;53.178;6.376;2023-05-31T11:03:55;15.73;;;5.35;;
51792;SDS011;37850;53.178;6.376;2023-05-31T11:06:23;12.88;;;4.97;;
51792;SDS011;37850;53.178;6.376;2023-05-31T11:11:30;15.68;;;5.10;;
51792;SDS011;37850;53.178;6.376;2023-05-31T11:19:20;12.15;;;4.25;;
51792;SDS011;37850;53.178;6.376;2023-05-31T11:27:03;13.73;;;4.65;;
51792;SDS011;37850;53.178;6.376;2023-05-31T11:32:19;11.15;;;4.35;;
51792;SDS011;37850;53.178;6.376;2023-05-31T11:34:51;15.20;;;4.30;;
51792;SDS011;37850;53.178;6.376;2023-05-31T11:37:19;11.93;;;3.90;;
51792;SDS011;37850;53.178;6.376;2023-05-31T11:39:49;10.30;;;3.72;;
51792;SDS011;37850;53.178;6.376;2023-05-31T11:42:18;13.90;;;4.45;;
51792;SDS011;37850;53.178;6.376;2023-05-31T11:44:45;14.75;;;4.30;;
51792;SDS011;37850;53.178;6.376;2023-05-31T11:47:16;13.05;;;4.30;;
51792;SDS011;37850;53.178;6.376;2023-05-31T11:49:43;12.10;;;4.32;;
51792;SDS011;37850;53.178;6.376;2023-05-31T11:52:10;14.30;;;4.80;;
51792;SDS011;37850;53.178;6.376;2023-05-31T11:54:41;16.33;;;5.03;;
51792;SDS011;37850;53.178;6.376;2023-05-31T11:57:08;16.15;;;5.47;;
51792;SDS011;37850;53.178;6.376;2023-05-31T11:59:35;16.45;;;5.00;;
51792;SDS011;37850;53.178;6.376;2023-05-31T12:02:02;14.55;;;5.45;;
51792;SDS011;37850;53.178;6.376;2023-05-31T12:04:33;13.05;;;5.20;;
51792;SDS011;37850;53.178;6.376;2023-05-31T12:07:04;12.43;;;5.20;;
51792;SDS011;37850;53.178;6.376;2023-05-31T12:09:32;14.10;;;4.95;;
51792;SDS011;37850;53.178;6.376;2023-05-31T12:11:59;13.55;;;5.85;;
51792;SDS011;37850;53.178;6.376;2023-05-31T12:14:28;14.40;;;5.10;;
51792;SDS011;37850;53.178;6.376;2023-05-31T12:16:53;16.63;;;4.70;;
51792;SDS011;37850;53.178;6.376;2023-05-31T12:19:19;15.20;;;4.93;;
51792;SDS011;37850;53.178;6.376;2023-05-31T12:21:46;11.07;;;5.43;;
51792;SDS011;37850;53.178;6.376;2023-05-31T12:24:14;9.55;;;4.03;;
51792;SDS011;37850;53.178;6.376;2023-05-31T12:26:44;12.82;;;4.75;;
51792;SDS011;37850;53.178;6.376;2023-05-31T12:29:13;11.20;;;4.60;;
51792;SDS011;37850;53.178;6.376;2023-05-31T12:31:39;11.40;;;4.40;;
51792;SDS011;37850;53.178;6.376;2023-05-31T12:39:06;11.70;;;3.85;;
51792;SDS011;37850;53.178;6.376;2023-05-31T12:41:38;8.40;;;3.28;;
51792;SDS011;37850;53.178;6.376;2023-05-31T12:44:07;9.38;;;3.60;;
51792;SDS011;37850;53.178;6.376;2023-05-31T12:46:37;12.52;;;3.75;;
51792;SDS011;37850;53.178;6.376;2023-05-31T12:49:09;9.27;;;3.50;;
51792;SDS011;37850;53.178;6.376;2023-05-31T12:51:38;11.15;;;3.20;;
51792;SDS011;37850;53.178;6.376;2023-05-31T12:54:09;13.48;;;4.55;;
51792;SDS011;37850;53.178;6.376;2023-05-31T12:56:36;12.00;;;4.45;;
51792;SDS011;37850;53.178;6.376;2023-05-31T12:59:02;11.48;;;4.97;;
51792;SDS011;37850;53.178;6.376;2023-05-31T13:01:27;16.45;;;5.90;;
51792;SDS011;37850;53.178;6.376;2023-05-31T13:03:53;14.45;;;5.80;;
51792;SDS011;37850;53.178;6.376;2023-05-31T13:06:19;14.40;;;5.88;;
51792;SDS011;37850;53.178;6.376;2023-05-31T13:08:44;12.80;;;5.35;;
51792;SDS011;37850;53.178;6.376;2023-05-31T13:11:10;12.73;;;5.20;;
51792;SDS011;37850;53.178;6.376;2023-05-31T13:13:36;11.70;;;5.25;;
51792;SDS011;37850;53.178;6.376;2023-05-31T13:16:01;10.55;;;4.55;;
51792;SDS011;37850;53.178;6.376;2023-05-31T13:18:29;13.95;;;4.68;;
51792;SDS011;37850;53.178;6.376;2023-05-31T13:20:55;10.43;;;4.38;;
51792;SDS011;37850;53.178;6.376;2023-05-31T13:23:23;12.27;;;4.55;;
51792;SDS011;37850;53.178;6.376;2023-05-31T13:25:49;13.73;;;4.53;;
51792;SDS011;37850;53.178;6.376;2023-05-31T13:28:18;12.07;;;4.28;;
51792;SDS011;37850;53.178;6.376;2023-05-31T13:30:46;12.85;;;4.50;;
51792;SDS011;37850;53.178;6.376;2023-05-31T13:33:12;13.25;;;5.15;;
51792;SDS011;37850;53.178;6.376;2023-05-31T13:35:38;11.02;;;4.07;;
51792;SDS011;37850;53.178;6.376;2023-05-31T13:38:05;16.58;;;5.28;;
51792;SDS011;37850;53.178;6.376;2023-05-31T13:40:31;10.95;;;3.78;;
51792;SDS011;37850;53.178;6.376;2023-05-31T13:42:59;14.48;;;3.90;;
51792;SDS011;37850;53.178;6.376;2023-05-31T13:45:24;11.05;;;3.83;;
51792;SDS011;37850;53.178;6.376;2023-05-31T13:47:50;10.88;;;3.25;;
51792;SDS011;37850;53.178;6.376;2023-05-31T13:50:16;10.27;;;3.20;;
51792;SDS011;37850;53.178;6.376;2023-05-31T13:52:42;11.13;;;3.60;;
51792;SDS011;37850;53.178;6.376;2023-05-31T13:55:08;12.82;;;4.25;;
51792;SDS011;37850;53.178;6.376;2023-05-31T13:57:34;10.57;;;3.97;;
51792;SDS011;37850;53.178;6.376;2023-05-31T13:59:59;10.35;;;3.25;;
51792;SDS011;37850;53.178;6.376;2023-05-31T14:02:25;10.90;;;3.35;;
51792;SDS011;37850;53.178;6.376;2023-05-31T14:04:53;9.52;;;3.58;;
51792;SDS011;37850;53.178;6.376;2023-05-31T14:07:18;9.65;;;3.17;;
51792;SDS011;37850;53.178;6.376;2023-05-31T14:09:44;10.52;;;3.55;;
51792;SDS011;37850;53.178;6.376;2023-05-31T14:12:10;8.85;;;3.10;;
51792;SDS011;37850;53.178;6.376;2023-05-31T14:14:36;11.68;;;3.85;;
51792;SDS011;37850;53.178;6.376;2023-05-31T14:17:02;10.77;;;3.25;;
51792;SDS011;37850;53.178;6.376;2023-05-31T14:19:28;10.65;;;2.97;;
51792;SDS011;37850;53.178;6.376;2023-05-31T14:21:53;9.88;;;2.95;;
51792;SDS011;37850;53.178;6.376;2023-05-31T14:24:20;11.93;;;3.28;;
51792;SDS011;37850;53.178;6.376;2023-05-31T14:26:46;9.13;;;2.80;;
51792;SDS011;37850;53.178;6.376;2023-05-31T14:29:12;9.77;;;3.40;;
51792;SDS011;37850;53.178;6.376;2023-05-31T14:31:37;9.07;;;3.15;;
51792;SDS011;37850;53.178;6.376;2023-05-31T14:34:03;7.93;;;2.88;;
51792;SDS011;37850;53.178;6.376;2023-05-31T14:36:29;9.40;;;2.88;;
51792;SDS011;37850;53.178;6.376;2023-05-31T14:38:55;8.32;;;2.63;;
51792;SDS011;37850;53.178;6.376;2023-05-31T14:41:21;7.63;;;3.05;;
51792;SDS011;37850;53.178;6.376;2023-05-31T14:43:46;10.38;;;3.00;;
51792;SDS011;37850;53.178;6.376;2023-05-31T14:46:13;8.88;;;3.10;;
51792;SDS011;37850;53.178;6.376;2023-05-31T14:48:40;7.18;;;2.50;;
51792;SDS011;37850;53.178;6.376;2023-05-31T14:51:06;7.93;;;2.90;;
51792;SDS011;37850;53.178;6.376;2023-05-31T14:53:32;7.43;;;2.40;;
51792;SDS011;37850;53.178;6.376;2023-05-31T14:55:58;8.90;;;2.40;;
51792;SDS011;37850;53.178;6.376;2023-05-31T14:58:24;9.35;;;2.50;;
51792;SDS011;37850;53.178;6.376;2023-05-31T15:00:51;7.65;;;2.58;;
51792;SDS011;37850;53.178;6.376;2023-05-31T15:03:16;8.45;;;2.92;;
51792;SDS011;37850;53.178;6.376;2023-05-31T15:05:42;7.47;;;2.70;;
51792;SDS011;37850;53.178;6.376;2023-05-31T15:08:08;10.25;;;2.78;;
51792;SDS011;37850;53.178;6.376;2023-05-31T15:10:33;8.80;;;2.47;;
51792;SDS011;37850;53.178;6.376;2023-05-31T15:12:59;10.43;;;2.90;;
51792;SDS011;37850;53.178;6.376;2023-05-31T15:15:24;9.85;;;2.80;;
51792;SDS011;37850;53.178;6.376;2023-05-31T15:17:50;11.40;;;3.17;;